Lansing, North Carolina
Current Conditions -  °F | °C
As of 9:15 AM on Friday 19 Dec 2014 (Local Time) from KGEV Reporting Station
Overcast Overcast  
Wind Chill: 29°   Ceiling: 3300
Heat Index: 33°   Visibility: 10mi
Dew Point: 16°   Wind: 5mph
Humidity: 48%   Direction: 250°WSW
Pressure: 30.11"   Gusts: NA
Location:  36.5°N, 81.51°W
Report Text: KGEV 191415Z AUTO 25004KT 10SM OVC033 01/M09 A3011 RMK AO2 T00081090
Loading
Personal Weather Stations






























Interactive Weather Map New forecast layout! Learn more

10-Day Weather Forecast

Advertisements
Track Severe Weather on mobile